Tiempo atmosférico en la estación meteorológica de Aranda De Duero, Burgos (790 m.)



Fecha
DESCASC
Temp. máxima en grados centígrados (hora)
DESCASC
Temp. mínima en grados centígrados (hora)
DESCASC
Temp. media en grados centígrados
DESCASC
Racha de viento máxima en m/sg (hora)
DESCASC
Velocidad máxima media en intervalos de 10 minutos(hora)
DESCASC
Precipitaciones diarias en mm
DESCASC
Precipitaciones de 00:00 a 06:00 en mm
DESCASC
Precipitaciones de 06:00 a 12:00 en mm
DESCASC
Precipitaciones de 12:00 a 18:00 en mm
DESCASC
Precipitaciones de 18:00 a 24:00 en mm
DESCASC
19-04-2018 22.4 (17:10) 9.1 (07:40) 15.8 11.94 (15:30) 5.56 (12:00) 0 0 0 0 0
18-04-2018 26.6 (17:10) 5.1 (05:40) 15.9 9.17 (11:30) 5 (10:50) 0 0 0 0 0
17-04-2018 21.5 (17:10) 1.9 (07:40) 11.7 4.44 (12:30) 2.5 (13:20) 0 0 0 0 0
16-04-2018 14.2 (17:00) 5.3 (23:59) 9.8 8.06 (17:00) 3.89 (14:50) 3.4 3.4 0 0 0
15-04-2018 15.2 (18:10) 5.1 (00:00) 10.1 9.44 (12:10) 4.72 (14:40) 6.6 0 0.2 0 6.4
14-04-2018 16.7 (16:50) 4.5 (00:00) 10.6 5.83 (18:00) 3.61 (18:30) 0.2 0.2 0 0 0
13-04-2018 10.8 (14:10) 4.4 (00:00) 7.6 5.28 (18:30) 3.33 (10:20) 8.8 7.2 1.2 0.2 0.2
12-04-2018 13.3 (16:20) 2.6 (00:00) 8 9.44 (20:20) 4.17 (19:20) 0.4 0 0 0 0.4
11-04-2018 9.3 (20:10) 2 (00:00) 5.7 11.67 (15:30) 5 (16:50) 0 0 0 0 0
10-04-2018 8.4 (17:10) 2.4 (00:00) 5.4 13.61 (13:10) 6.67 (13:00) 6.6 0.6 5.4 0.6 0
09-04-2018 8.2 (14:20) 3.1 (00:00) 5.6 10.83 (04:50) 5.56 (05:00) 11.8 2.6 1.2 4.8 3.2
08-04-2018 12.4 (16:40) 2.7 (00:00) 7.5 11.94 (17:10) 5.83 (17:20) 0.2 0 0 0 0.2
07-04-2018 13.2 (00:10) 4.2 (00:00) 8.7 9.17 (00:40) 3.89 (00:40) 4.2 0 0 4 0.2
06-04-2018 22.4 (15:00) 1.6 (00:00) 12 13.61 (18:40) 6.39 (16:30) 0 0 0 0 0
05-04-2018 17.8 (17:10) 0 (00:00) 8.9 6.39 (14:10) 2.78 (11:20) 0 0 0 0 0
04-04-2018 13.2 (16:10) 6 (00:00) 9.6 19.72 (15:10) 8.33 (17:10) 1 0 0 0.6 0.4
03-04-2018 14.8 (15:50) 6.8 (00:00) 10.8 18.33 (18:00) 8.89 (18:00) 1.6 0.2 0.2 0.2 1
02-04-2018 19.9 (16:40) 6.5 (00:00) 13.2 16.11 (16:40) 8.06 (16:50) 2.2 0 0 0 2.2
01-04-2018 18.7 (17:50) 1.3 (00:00) 10 8.61 (20:00) 4.17 (19:40) 0 0 0 0 0
31-03-2018 12.2 (17:20) 2.2 (00:00) 7.2 16.39 (03:50) 7.78 (03:50) 0 0 0 0 0
30-03-2018 10.4 (16:30) 1.3 (00:00) 5.8 20.83 (04:20) 9.17 (04:30) 2.8 0.8 0 0 2
29-03-2018 13.2 (16:30) 6.3 (00:00) 9.8 11.67 (19:20) 6.11 (15:20) 0 0 0 0 0
28-03-2018 18.8 (14:30) 0.4 (00:00) 9.6 13.06 (13:40) 6.67 (14:40) 0 0 0 0 0
27-03-2018 17.4 (18:50) 1.7 (00:00) 9.5 8.89 (18:00) 4.17 (12:00) 0 0 0 0 0
26-03-2018 12.3 (16:50) -0.3 (00:00) 6 8.33 (16:10) 3.61 (14:10) 0.2 0.2 0 0 0
25-03-2018 9.6 (15:50) 0.7 (00:00) 5.2 11.11 (17:00) 4.44 (16:40) 0 0 0 0 0
24-03-2018 9.9 (15:50) 0.2 (00:00) 5 20.28 (15:30) 7.22 (13:00) 0.4 0.2 0 0.2 0
23-03-2018 11.1 (16:50) -2.2 (-00:0) 4.5 13.89 (23:40) 7.22 (19:50) 4.8 0 0 0.2 4.6

Gráficas

Temp. máximas Temp. mínimas Temp. medias Precipitaciones Rachas de viento máximas Velocidades máximas media en intervalos de 10 minutos

Datos horarios

Fecha y hora oficial Temperatura (ºC) Velocidad del viento (km/h) Dirección del viento Racha (km/h) Dirección de racha Precipitación (mm) Presión (hPa) Tendencia (hPa) Humedad (%)
2018-04-21 23:00:00 11.7 2 Sudoeste 8 Este 0 927.5 1 66
2018-04-21 22:00:00 13.4 4 Este 7 Este 0 927.1 0.9 59
2018-04-21 21:00:00 16.6 0 Calma 7 Sur 0 926.8 0.5 47
2018-04-21 20:00:00 18.1 3 Sudeste 12 Este 0 926.5 1 40
2018-04-21 19:00:00 18.4 7 Este 27 Este 0 926.2 -0.3 37
2018-04-21 18:00:00 18.8 13 Este 40 Sudeste 0 926.3 -1.4 35
2018-04-21 17:00:00 18.3 17 Este 31 Este 0 925.5 -2.7 36
2018-04-21 16:00:00 18.7 9 Este 19 Este 0 926.5 -2.1 33
2018-04-21 15:00:00 18.9 3 Nordeste 11 Noroeste 0 927.7 -0.6 36
2018-04-21 14:00:00 18.9 5 Oeste 16 Sudoeste 0 928.2 -0.1 38
2018-04-21 13:00:00 18.4 9 Sudoeste 22 Este 0 928.6 0.5 37
2018-04-21 12:00:00 16.2 10 Este 24 Este 0 928.3 0.3 50
2018-04-21 11:00:00 14.6 13 Este 32 Este 0 928.3 0.5 53
2018-04-21 10:00:00 12.6 13 Este 33 Este 0 928.1 0.6 58
2018-04-21 09:00:00 10.1 15 Este 31 Este 0 928 0.5 67
2018-04-21 08:00:00 8.2 10 Este 23 Este 0 927.8 -0.2 74
2018-04-21 07:00:00 7.8 6 Este 18 Este 0 927.5 -0.9 76
2018-04-21 06:00:00 8.7 9 Este 21 Este 0 927.5 -1.3 73
2018-04-21 05:00:00 9.1 8 Este 19 Este 0 928 -1.3 73
2018-04-21 04:00:00 9.7 6 Este 17 Este 0 928.4 -0.6 71
2018-04-21 03:00:00 10 7 Este 15 Nordeste 0 928.8 -0.1 72
2018-04-21 02:00:00 11 4 Este 13 Este 0 929.3 0.8 67
2018-04-21 01:00:00 12.7 8 Sudeste 14 Sudeste 0 929 1.1 60
2018-04-21 00:00:00 14.7 10 Este 21 Este 0 928.9 1.6 53
2018-04-20 23:00:00 15.8 13 Sudeste 32 Sudeste 0 928.5 1.6 51
2018-04-20 22:00:00 16.7 10 Este 36 Sudeste 0 927.9 1.2 49
2018-04-20 21:00:00 17.8 17 Este 54 Este 0 927.3 0.5 44
2018-04-20 20:00:00 19 24 Este 45 Este 0 926.9 -0.2 38
2018-04-20 19:00:00 20 22 Este 48 Sudeste 0 926.7 -1 36
2018-04-20 18:00:00 20.9 19 Este 48 Este 0 926.8 -1.3 32
2018-04-20 17:00:00 21.3 17 Este 40 Sudeste 0 927.1 -1.6 30
2018-04-20 16:00:00 20.8 18 Este 49 Este 0 927.7 -2.1 32
2018-04-20 15:00:00 19.8 23 Este 46 Este 0 928.1 -2 33
2018-04-20 14:00:00 19 19 Este 44 Sudeste 0 928.7 -1.5 37
2018-04-20 13:00:00 18 18 Este 39 Este 0 929.8 -0.7 44
2018-04-20 12:00:00 17.1 18 Este 45 Este 0 930.1 -0.3 43
2018-04-20 11:00:00 15.4 20 Este 38 Este 0 930.2 0.1 49
2018-04-20 10:00:00 13.3 12 Este 28 Sudeste 0 930.5 0.7 59
2018-04-20 09:00:00 11.6 9 Este 23 Sudeste 0 930.4 0.4 66
2018-04-20 08:00:00 9.5 13 Este 23 Sudeste 0 930.1 -0.2 74
2018-04-20 07:00:00 9.6 6 Este 16 Sudeste 0 929.8 -0.4 74
2018-04-20 06:00:00 10.5 7 Este 21 Sudeste 0 930 -0.4 72
2018-04-20 05:00:00 11.2 9 Este 19 Sudeste 0 930.3 -0.2 71
2018-04-20 04:00:00 12.2 13 Este 25 Sudeste 0 930.2 -0.3 67
2018-04-20 03:00:00 11.9 10 Este 17 Sudeste 0 930.4 -0.1 68
2018-04-20 02:00:00 13.2 7 Este 17 Este 0 930.5 0 64
2018-04-20 01:00:00 13.9 6 Este 24 Este 0 930.5 0.5 61
2018-04-20 00:00:00 15.1 10 Este 31 Sudeste 0 930.5 1.2 58
2018-04-19 23:00:00 16.5 10 Este 27 Este 0 930.5 1.6 53
2018-04-19 22:00:00 17.6 10 Este 27 Sudeste 0 930 1.2 47
2018-04-19 21:00:00 19.2 15 Este 35 Este 0 929.3 0.4 38
2018-04-19 20:00:00 20.9 19 Este 36 Sudeste 0 928.9 -0.3 32
2018-04-19 19:00:00 21.4 17 Este 33 Este 0 928.8 -1.1 29
2018-04-19 18:00:00 21.9 18 Este 36 Este 0 928.9 -1.5 27
2018-04-19 17:00:00 22.2 18 Este 37 Este 0 929.2 -1.7 24
2018-04-19 16:00:00 21.7 18 Este 43 Este 0 929.9 -1.5 27
2018-04-19 15:00:00 21.6 17 Este 39 Este 0 930.4 -1.3 29
2018-04-19 14:00:00 21.4 15 Sudeste 38 Sudeste 0 930.9 -1.2 30
2018-04-19 13:00:00 20.6 17 Este 35 Este 0 931.4 -0.7 30
2018-04-19 12:00:00 19.5 20 Este 35 Este 0 931.7 -0.3 32
2018-04-19 11:00:00 17.3 15 Este 35 Este 0 932.1 0.1 41
2018-04-19 10:00:00 14.6 16 Este 34 Este 0 932.1 0.2 49
2018-04-19 09:00:00 12.2 13 Este 26 Este 0 932 0 58
2018-04-19 08:00:00 9.5 9 Este 21 Este 0 932 0.1 70
2018-04-19 07:00:00 9.5 7 Este 16 Sudeste 0 931.9 0 73
2018-04-19 06:00:00 9.5 8 Este 21 Este 0 932 -0.2 76
2018-04-19 05:00:00 10.6 9 Este 15 Este 0 931.9 -0.6 73
2018-04-19 04:00:00 11.3 8 Este 16 Este 0 931.9 -0.5 72
2018-04-19 03:00:00 12.6 5 Este 15 Este 0 932.2 0.3 67
2018-04-19 02:00:00 13.9 7 Este 15 Sudeste 0 932.5 0.8 64
2018-04-19 01:00:00 14.6 8 Este 18 Este 0 932.4 1.3 60
2018-04-19 00:00:00 15 7 Sudeste 17 Este 0 931.9 1.5 59
2018-04-18 23:00:00 14.6 3 Noroeste 8 Sudoeste 0 931.7 1.3 63
2018-04-18 22:00:00 17.6 3 Sudeste 10 Sudoeste 0 931.1 0.6 53
2018-04-18 21:00:00 21.1 3 Oeste 13 Noroeste 0 930.4 -0.2 37
2018-04-18 20:00:00 22.9 4 Noroeste 19 Noroeste 0 930.4 -0.3 30
2018-04-18 19:00:00 24.2 7 Oeste 23 Oeste 0 930.5 -0.5 28
2018-04-18 18:00:00 25.1 8 Oeste 23 Oeste 0 930.6 -0.7 28
2018-04-18 17:00:00 26.2 3 Sur 17 Sudeste 0 930.7 -0.9 23
2018-04-18 16:00:00 25 7 Este 23 Sudeste 0 931 -1 27
2018-04-18 15:00:00 23.8 6 Este 23 Este 0 931.3 -1.2 28
2018-04-18 14:00:00 23.2 9 Este 23 Sudeste 0 931.6 -1.2 31
2018-04-18 13:00:00 21.4 9 Este 29 Este 0 932 -1 37
2018-04-18 12:00:00 18.6 18 Este 33 Este 0 932.5 -0.6 39
2018-04-18 11:00:00 15.8 14 Este 32 Este 0 932.8 -0.2 49
2018-04-18 10:00:00 12.8 18 Este 32 Este 0 933 0.3 57
2018-04-18 09:00:00 9.7 10 Este 17 Este 0 933.1 0.4 71
2018-04-18 08:00:00 6.3 11 Este 16 Este 0 933 0.1 82
2018-04-18 07:00:00 5.5 6 Sudeste 11 Sudeste 0 932.7 -0.3 84
2018-04-18 06:00:00 5.5 7 Sudeste 12 Sudeste 0 932.7 -0.4 86
2018-04-18 05:00:00 5.5 2 Sur 7 Este 0 932.9 -0.3 84
2018-04-18 04:00:00 6.2 4 Este 7 Este 0 933 -0.2 84
2018-04-18 03:00:00 7.1 3 Sudeste 9 Este 0 933.1 0 81
2018-04-18 02:00:00 8 5 Este 10 Este 0 933.2 0 80
2018-04-18 01:00:00 8.3 5 Este 8 Sudeste 0 933.2 0.4 79
2018-04-18 00:00:00 8.9 0 Calma 4 Este 0 933.1 0.9 75
2018-04-17 23:00:00 10.6 3 Este 6 Sudeste 0 933.2 1 72
2018-04-17 22:00:00 12.9 5 Este 6 Este 0 932.8 0.7 58
2018-04-17 21:00:00 17.1 2 Noroeste 9 Noroeste 0 932.2 0.2 45
2018-04-17 20:00:00 18.9 4 Noroeste 14 Noroeste 0 932.2 -0.1 29
2018-04-17 19:00:00 19.8 4 Oeste 15 Noroeste 0 932.1 -0.5 30
2018-04-17 18:00:00 20.6 4 Oeste 14 Noroeste 0 932 -0.9 29
2018-04-17 17:00:00 21.2 6 Oeste 16 Sudoeste 0 932.3 -1 28
2018-04-17 16:00:00 20.5 4 Sudoeste 14 Sudoeste 0 932.6 -0.9 21
2018-04-17 15:00:00 19.4 6 Sudoeste 14 Sudoeste 0 932.9 -0.8 28
2018-04-17 14:00:00 17.9 7 Sudoeste 15 Sudoeste 0 933.3 -0.4 38
2018-04-17 13:00:00 16.5 5 Sudoeste 16 Sudoeste 0 933.5 0 45
2018-04-17 12:00:00 14.9 3 Noroeste 12 Oeste 0 933.7 0.5 51
2018-04-17 11:00:00 11.8 4 Este 10 Sudeste 0 933.7 1.2 60
2018-04-17 10:00:00 8.7 5 Sudeste 12 Este 0 933.5 1.4 70
2018-04-17 09:00:00 5.8 6 Sudeste 13 Sudeste 0 933.2 1.3 77
2018-04-17 08:00:00 2.1 3 Este 7 Sudeste 0 932.5 0.8 87
2018-04-17 07:00:00 2.3 4 Este 8 Este 0 932.1 0.6 87
2018-04-17 06:00:00 2.6 5 Este 8 Este 0 931.9 0.4 87
2018-04-17 05:00:00 2.8 4 Este 8 Este 0 931.7 0.3 87
2018-04-17 04:00:00 3.1 4 Este 6 Este 0 931.5 0.6 87
2018-04-17 03:00:00 2.9 0 Calma 4 Este 0 931.5 1 86
2018-04-17 02:00:00 3.5 2 Este 4 Este 0 931.4 1.3 85
2018-04-17 01:00:00 4.5 2 Este 4 Norte 0 930.9 1.5 84
2018-04-17 00:00:00 5.3 0 Calma 5 Este 0 930.5 1.7 82
2018-04-16 23:00:00 6.8 3 Este 5 Sudoeste 0 930.1 1.7 78
2018-04-16 22:00:00 8.5 0 Calma -- -- 0 929.4 1.1 71
2018-04-16 21:00:00 11.3 2 Sudoeste 11 Oeste 0 928.8 0.8 60
2018-04-16 20:00:00 12.6 4 Oeste 17 Oeste 0 928.4 0.1 52
2018-04-16 19:00:00 13.3 6 Oeste 19 Sudoeste 0 928.3 -0.1 50
2018-04-16 18:00:00 13.6 9 Oeste 19 Oeste 0 928 -0.2 48
2018-04-16 17:00:00 14.2 9 Oeste 29 Oeste 0 928.3 0.4 49
2018-04-16 16:00:00 12.7 9 Oeste 21 Oeste 0 928.4 0.6 56
2018-04-16 15:00:00 11.5 13 Oeste 25 Oeste 0 928.2 0.4 60
2018-04-16 14:00:00 12.3 8 Oeste 23 Oeste 0 927.9 0.7 58
2018-04-16 13:00:00 10.9 8 Noroeste 19 Noroeste 0 927.8 0.9 61
2018-04-16 12:00:00 9.5 6 Oeste 23 Oeste 0 927.8 1.4 71
2018-04-16 11:00:00 9 6 Noroeste 19 Noroeste 0 927.2 1.7 72
2018-04-16 10:00:00 7.2 4 Oeste 23 Oeste 0 926.9 2.3 82
2018-04-16 09:00:00 6 6 Oeste 24 Oeste 0 926.4 2.5 84
2018-04-16 08:00:00 6 12 Oeste 28 Oeste 0 925.5 1.5 84
2018-04-16 07:00:00 6.2 12 Oeste 24 Oeste 0 924.6 0.6 84
2018-04-16 06:00:00 6.3 9 Oeste 25 Oeste 0 923.9 0 84
2018-04-16 05:00:00 6.4 6 Oeste 24 Oeste 0 924 -0.3 82
2018-04-16 04:00:00 6.6 7 Oeste 17 Oeste 0 924 -0.2 85
2018-04-16 03:00:00 6.7 6 Sudoeste 25 Oeste 0.4 923.9 -0.1 85
2018-04-16 02:00:00 7.3 10 Oeste 24 Oeste 1.8 924.3 0.9 87
2018-04-16 01:00:00 7.9 5 Oeste 12 Oeste 1.2 924.2 1.4 87
2018-04-16 00:00:00 8.2 8 Oeste 21 Oeste 2.8 924 1.4 85
2018-04-15 23:00:00 9.1 5 Oeste 29 Noroeste 2.6 923.4 0.2 85
2018-04-15 22:00:00 11.4 4 Oeste 11 Oeste 0.8 922.8 -0.4 83
2018-04-15 21:00:00 12.4 0 Calma 8 Oeste 0 922.6 -1 74
2018-04-15 20:00:00 13.4 3 Sudoeste 18 Oeste 0.2 923.2 -0.9 71
2018-04-15 19:00:00 14.7 5 Oeste 18 Oeste 0 923.2 -1.7 57
2018-04-15 18:00:00 15 7 Oeste 24 Oeste 0 923.6 -1.5 62
2018-04-15 17:00:00 14.5 8 Oeste 25 Sudoeste 0 924.1 -1.2 64
2018-04-15 16:00:00 13.8 12 Sudoeste 31 Oeste 0 924.9 -0.6 66
2018-04-15 15:00:00 12.5 16 Sudoeste 32 Sudoeste 0 925.1 -0.7 77
2018-04-15 14:00:00 12.5 12 Sudoeste 28 Sudoeste 0 925.3 -0.5 75
2018-04-15 13:00:00 12.2 13 Sudoeste 34 Sudoeste 0 925.5 -0.3 72
2018-04-15 12:00:00 10.4 15 Sudoeste 30 Sudoeste 0 925.8 -0.1 78
2018-04-15 11:00:00 9.3 15 Sudoeste 31 Sudoeste 0 925.8 0 83
2018-04-15 10:00:00 9.1 7 Sudoeste 22 Oeste 0 925.8 0.3 83
2018-04-15 09:00:00 8.4 2 Sudeste 4 Sur 0 925.9 0.2 87
2018-04-15 08:00:00 7.9 3 Sudoeste 6 Oeste 0.2 925.8 -0.2 86
2018-04-15 07:00:00 7.9 3 Sudoeste 11 Sudoeste 0 925.5 -0.5 84
2018-04-15 06:00:00 6.9 2 Sudoeste 6 Sudoeste 0 925.7 -0.7 87
2018-04-15 05:00:00 6.2 3 Oeste 8 Noroeste 0 926 -0.5 86
2018-04-15 04:00:00 5.3 0 Calma 4 Este 0 926 -0.6 86
2018-04-15 03:00:00 5.3 2 Este 4 Nordeste 0 926.4 -0.1 85
2018-04-15 02:00:00 5.5 2 Este 5 Noroeste 0 926.5 0 84
2018-04-15 01:00:00 5.3 3 Norte 5 Este 0 926.6 0.6 82
2018-04-15 00:00:00 5.8 2 Este 6 Nordeste 0 926.5 1.1 80
2018-04-14 23:00:00 7.3 2 Este 5 Nordeste 0 926.5 1 76
2018-04-14 22:00:00 9.5 4 Sudoeste 7 Sudoeste 0 926 0.6 67
2018-04-14 21:00:00 12.6 5 Sudoeste 17 Sudoeste 0 925.4 0.1 54
2018-04-14 20:00:00 14.6 8 Sudoeste 21 Oeste 0 925.5 0.1 43
2018-04-14 19:00:00 15.1 9 Sudoeste 21 Sudoeste 0 925.4 -0.3 38
2018-04-14 18:00:00 16 8 Sudoeste 21 Sudoeste 0 925.3 -0.5 35
2018-04-14 17:00:00 15.7 10 Sudoeste 18 Sudoeste 0 925.4 -0.9 37
2018-04-14 16:00:00 15.1 6 Sudoeste 18 Sudoeste 0 925.7 -0.7 38
2018-04-14 15:00:00 14.9 3 Sudoeste 15 Oeste 0 925.8 -0.5 46
2018-04-14 14:00:00 13.3 5 Noroeste 14 Norte 0 926.3 0.2 48
2018-04-14 13:00:00 12.5 3 Oeste 13 Sudeste 0 926.4 0.6 50
2018-04-14 12:00:00 11.6 4 Sudeste 16 Sudeste 0 926.3 1 59
2018-04-14 11:00:00 9.3 4 Sudeste 11 Este 0 926.1 1.6 72
2018-04-14 10:00:00 6.4 4 Sudeste 8 Este 0 925.8 2 89
2018-04-14 09:00:00 4.9 2 Norte 8 Oeste 0 925.3 1.7 89
2018-04-14 08:00:00 4.5 3 Sudoeste 9 Oeste 0 924.5 1.3 89
2018-04-14 07:00:00 5.2 3 Oeste 8 Noroeste 0 923.8 0.7 89
2018-04-14 06:00:00 5.2 4 Oeste 8 Noroeste 0 923.6 0.6 88
2018-04-14 05:00:00 4.9 0 Calma 6 Norte 0 923.2 0.4 88
2018-04-14 04:00:00 4.6 4 Sudoeste 5 Sudoeste 0 923.1 0.9 87
2018-04-14 03:00:00 6 0 Calma 5 Noroeste 0 923 1.2 87
2018-04-14 02:00:00 5.8 4 Noroeste 8 Norte 0 922.8 1.5 86
2018-04-14 01:00:00 6.6 4 Sudoeste 6 Sudoeste 0.2 922.2 1.9 85
2018-04-14 00:00:00 7 3 Sudoeste 6 Oeste 0 921.8 2.5 85
2018-04-13 23:00:00 7.3 0 Calma 16 Noroeste 0.2 921.3 2.9 81
2018-04-13 22:00:00 8.2 5 Noroeste 13 Oeste 0 920.3 2.5 75
2018-04-13 21:00:00 9.2 3 Sur 13 Sudoeste 0 919.3 2.1 72
2018-04-13 20:00:00 10 8 Sudoeste 14 Sudoeste 0 918.4 1.6 65
2018-04-13 19:00:00 10.4 6 Oeste 19 Sudoeste 0 917.8 1 62
2018-04-13 18:00:00 10 4 Sur 14 Sur 0 917.2 0.8 69
2018-04-13 17:00:00 9.7 2 Nordeste 13 Noroeste 0.2 916.8 0.6 64
2018-04-13 16:00:00 9.6 3 Noroeste 16 Noroeste 0 916.8 0.9 66
2018-04-13 15:00:00 9.3 8 Noroeste 15 Noroeste 0 916.4 0.8 62
2018-04-13 14:00:00 10.2 8 Sudoeste 18 Sudoeste 0 916.2 1.3 64
2018-04-13 13:00:00 8.4 6 Sudoeste 14 Oeste 0 915.9 1.9 69
2018-04-13 12:00:00 7.6 7 Sudoeste 17 Sudoeste 0 915.6 2.2 74
2018-04-13 11:00:00 6.4 7 Sudoeste 18 Sudoeste 0 914.9 2.2 81
2018-04-13 10:00:00 5.3 11 Sudoeste 17 Sudoeste 0.6 914 2 85
2018-04-13 09:00:00 4.8 0 Calma 4 Sudoeste 0.4 913.4 1.9 87
2018-04-13 08:00:00 4.4 0 Calma 4 Oeste 0 912.7 1.3 86
2018-04-13 07:00:00 4.4 2 Oeste 6 Oeste 0.2 912 0.9 86
2018-04-13 06:00:00 4.5 5 Sur 13 Sudoeste 0.6 911.5 0.5 84
2018-04-13 05:00:00 5.4 5 Sudoeste 10 Este 2.4 911.4 0.3 86
2018-04-13 04:00:00 5.7 0 Calma 8 Sudeste 1.2 911.1 0.1 85
2018-04-13 03:00:00 5.8 2 Sudeste 6 Este 1 911 0.3 83
2018-04-13 02:00:00 6.2 2 Sudeste 5 Sur 1.4 911.1 0.9 83
2018-04-13 01:00:00 6.6 2 Sudoeste 8 Sudeste 0.6 911 1.2 83
2018-04-13 00:00:00 7.2 3 Sudeste 12 Sur 0.4 910.7 1.5 77
2018-04-12 23:00:00 8.3 3 Sudeste 16 Este 0 910.2 1.1 64
2018-04-12 22:00:00 8.4 5 Este 21 Sur 0 909.8 0.6 63
2018-04-12 21:00:00 9 11 Sur 34 Sur 0 909.2 -0.3 61
2018-04-12 20:00:00 10.5 13 Sur 27 Sur 0 909.1 -1 53
2018-04-12 19:00:00 11.5 13 Sur 27 Sur 0 909.2 -1.7 47
2018-04-12 18:00:00 12 12 Sur 28 Sur 0 909.5 -2.1 46
2018-04-12 17:00:00 12.7 8 Oeste 18 Oeste 0 910.1 -2.4 46
2018-04-12 16:00:00 12.2 6 Oeste 21 Sudoeste 0 910.9 -2.4 47
2018-04-12 15:00:00 11.6 7 Sudoeste 24 Oeste 0 911.6 -2.5 48
2018-04-12 14:00:00 9.9 10 Sudoeste 21 Sudoeste 0 912.5 -1.4 57
2018-04-12 13:00:00 9.2 10 Sudoeste 18 Sudoeste 0 913.3 -0.5 65
2018-04-12 12:00:00 7 6 Sudoeste 19 Oeste 0 914.1 0.4 70
2018-04-12 11:00:00 5.6 9 Oeste 21 Sudoeste 0 913.9 0.7 77
2018-04-12 10:00:00 5.1 7 Sudoeste 23 Oeste 0 913.8 0.7 80
2018-04-12 09:00:00 4.4 12 Sudoeste 26 Oeste 0 913.7 0.5 81
2018-04-12 08:00:00 3.8 10 Oeste 23 Oeste 0 913.2 0.2 84
2018-04-12 07:00:00 2.8 8 Oeste 18 Oeste 0 913.1 0.2 86
2018-04-12 06:00:00 2.7 8 Sudoeste 19 Oeste 0 913.2 0.2 84
2018-04-12 05:00:00 3.4 8 Sudoeste 15 Sudoeste 0 913 0 83
2018-04-12 04:00:00 3.5 3 Sudoeste 11 Oeste 0 912.9 -0.2 82
2018-04-12 03:00:00 3.5 4 Oeste 16 Oeste 0 913 0.1 80
2018-04-12 02:00:00 3.6 5 Sudoeste 11 Sudoeste 0 913 0.5 81
2018-04-12 01:00:00 4.6 5 Oeste 14 Oeste 0 913.1 1.3 77
2018-04-12 00:00:00 6.1 5 Oeste 14 Oeste 0 912.9 2.2 70
2018-04-11 23:00:00 6.8 5 Noroeste 14 Oeste 0 912.5 2.5 70
2018-04-11 22:00:00 7.3 8 Noroeste 23 Noroeste 0 911.8 2.2 65
2018-04-11 21:00:00 8.2 11 Noroeste 26 Norte 0 910.7 1 63
2018-04-11 20:00:00 9 6 Noroeste 18 Noroeste 0 910 0.9 67
2018-04-11 19:00:00 8.1 11 Noroeste 29 Noroeste 0 909.6 0.7 67
2018-04-11 18:00:00 8.5 14 Noroeste 35 Norte 0 909.7 0.7 66
2018-04-11 17:00:00 8 15 Norte 39 Noroeste 0 909.1 -0.2 65
2018-04-11 16:00:00 8.5 12 Oeste 42 Oeste 0 908.9 -0.7 58
2018-04-11 15:00:00 7.4 10 Oeste 40 Oeste 0 909 -0.6 60
2018-04-11 14:00:00 6.4 14 Oeste 41 Oeste 0 909.3 0 62
2018-04-11 13:00:00 5.3 13 Oeste 40 Oeste 0 909.6 0.6 65
2018-04-11 12:00:00 3.9 13 Oeste 36 Oeste 0 909.6 0.9 69
2018-04-11 11:00:00 2.8 11 Oeste 30 Oeste 0 909.3 1 75
2018-04-11 10:00:00 2.4 10 Oeste 23 Oeste 0 909 1.4 77
2018-04-11 09:00:00 2.1 7 Oeste 23 Oeste 0 908.7 1.3 82
2018-04-11 08:00:00 2.1 10 Oeste 23 Noroeste 0 908.3 1.2 81
2018-04-11 07:00:00 2.3 7 Oeste 24 Noroeste 0 907.6 0.7 80
2018-04-11 06:00:00 2.5 9 Noroeste 29 Oeste 0 907.4 0.4 78
2018-04-11 05:00:00 2.4 9 Noroeste 28 Noroeste 0 907.1 0.4 79
2018-04-11 04:00:00 2.4 9 Noroeste 26 Noroeste 0 906.9 0.1 81
2018-04-11 03:00:00 2.9 10 Noroeste 27 Norte 0 907 0.4 78
2018-04-11 02:00:00 3 5 Noroeste 22 Noroeste 0 906.7 0.5 77
2018-04-11 01:00:00 3.1 5 Oeste 12 Noroeste 0 906.8 1.1 81
2018-04-11 00:00:00 3.4 4 Noroeste 8 Oeste 0 906.6 1.7 80
2018-04-10 23:00:00 3.5 3 Sudoeste 10 Noroeste 0 906.2 1.7 79
2018-04-10 22:00:00 3.3 0 Calma 5 Sudoeste 0 905.7 1.2 83
2018-04-10 21:00:00 3.3 3 Sur 12 Oeste 0 904.9 0.8 81
2018-04-10 20:00:00 3.8 4 Oeste 21 Noroeste 0 904.5 0 79
2018-04-10 19:00:00 4.6 7 Noroeste 32 Oeste 0 904.5 -0.8 74
2018-04-10 18:00:00 8 10 Sudoeste 23 Sudoeste 0 904.1 -1.9 62
2018-04-10 17:00:00 7.8 12 Sudoeste 28 Sudoeste 0 904.5 -2.2 60
2018-04-10 16:00:00 7.3 15 Sudoeste 35 Sudoeste 0 905.3 -1.9 69
2018-04-10 15:00:00 6.5 17 Sudoeste 34 Sudoeste 0 906 -1.4 75
2018-04-10 14:00:00 6 18 Sudoeste 49 Sudoeste 0.2 906.7 -1.3 79
2018-04-10 13:00:00 5.2 24 Sudoeste 48 Sudoeste 0.4 907.2 -1.4 81
2018-04-10 12:00:00 3.9 20 Sudoeste 35 Sudoeste 0.2 907.4 -1.8 85
2018-04-10 11:00:00 2.6 11 Sudoeste 26 Sudoeste 2 908 -2 85
2018-04-10 10:00:00 3.6 14 Sudoeste 28 Sudoeste 1.4 908.6 -1.9 83
2018-04-10 09:00:00 4.1 14 Sudoeste 36 Sudoeste 1.2 909.2 -2.4 84
2018-04-10 08:00:00 4.7 18 Sudoeste 46 Sudoeste 0.6 910 -2.5 82
2018-04-10 07:00:00 5.4 17 Sudoeste 33 Sudoeste 0 910.5 -2.8 81
2018-04-10 06:00:00 5.8 16 Sudoeste 30 Sudoeste 0 911.6 -3 80
2018-04-10 05:00:00 5.7 14 Sudoeste 32 Sudoeste 0 912.5 -2.6 82
2018-04-10 04:00:00 5.7 17 Sudoeste 30 Sudoeste 0 913.3 -2.3 83
2018-04-10 03:00:00 5.7 20 Sudoeste 39 Sudoeste 0 914.6 -1.8 83
2018-04-10 02:00:00 5.8 19 Sudoeste 33 Sudoeste 0 915.1 -1.8 83
2018-04-10 01:00:00 5.2 7 Sudoeste 33 Oeste 0.6 915.6 -1.2 85
2018-04-10 00:00:00 5.1 9 Sudoeste 18 Sudoeste 0 916.4 -0.2 87
2018-04-09 23:00:00 4.6 3 Oeste 8 Sudoeste 0.2 916.9 0.1 87
2018-04-09 22:00:00 4.4 3 Oeste 19 Oeste 0.4 916.8 0.1 86
2018-04-09 21:00:00 4.5 6 Oeste 15 Oeste 0.6 916.6 0.2 84
2018-04-09 20:00:00 4.4 8 Sudoeste 19 Sudoeste 0.6 916.8 0.2 84
2018-04-09 19:00:00 4 6 Noroeste 19 Oeste 1.4 916.7 0.3 82
2018-04-09 18:00:00 4.7 4 Sur 22 Oeste 3 916.4 0.2 85
2018-04-09 17:00:00 4.7 13 Sudoeste 31 Sudoeste 1.8 916.6 0.2 79
2018-04-09 16:00:00 5.6 15 Sudoeste 33 Sudoeste 0 916.4 0 74
2018-04-09 15:00:00 7.6 11 Noroeste 27 Norte 0 916.2 -0.3 61
2018-04-09 14:00:00 7.4 14 Noroeste 28 Noroeste 0 916.4 0.3 68
2018-04-09 13:00:00 7.4 6 Oeste 18 Noroeste 0 916.4 0.5 66
2018-04-09 12:00:00 6.7 5 Noroeste 13 Noroeste 0 916.5 0.8 70
2018-04-09 11:00:00 6.2 4 Sudoeste 13 Sudoeste 0 916.1 1 72
2018-04-09 10:00:00 4.2 2 Norte 7 Sudoeste 0 915.9 1.4 82
2018-04-09 09:00:00 3.6 2 Oeste 11 Sudoeste 0 915.7 1.2 86
2018-04-09 08:00:00 3.2 3 Sudoeste 13 Sur 1 915.1 0.4 86
2018-04-09 07:00:00 3.3 2 Sudeste 8 Sudeste 0.2 914.5 0.5 85
2018-04-09 06:00:00 3.1 3 Norte 31 Oeste 1.6 914.5 0.1 85
2018-04-09 05:00:00 4.2 20 Sudoeste 39 Oeste 0.8 914.7 -0.3 82
2018-04-09 04:00:00 6.1 8 Este 18 Este 0.2 914 -1.4 83
2018-04-09 03:00:00 6.5 4 Este 11 Este 0 914.4 -1.1 80
2018-04-09 02:00:00 6.7 2 Este 8 Sudeste 0 915 -0.9 81
2018-04-09 01:00:00 6.7 6 Sudeste 10 Sudeste 0 915.4 -0.2 82
2018-04-09 00:00:00 6.3 2 Norte 8 Sudeste 0 915.5 0.2 82
2018-04-08 23:00:00 6.8 3 Sudoeste 17 Noroeste 0 915.9 0.6 81
2018-04-08 22:00:00 7.3 5 Este 23 Norte 0 915.6 0.1 74
2018-04-08 21:00:00 8.5 2 Este 13 Noroeste 0 915.3 -0.6 71
2018-04-08 20:00:00 9.6 7 Noroeste 18 Noroeste 0 915.3 -0.9 62
2018-04-08 19:00:00 9.4 3 Este 29 Oeste 0.2 915.5 -1.2 71
2018-04-08 18:00:00 10.8 9 Sudoeste 43 Sudoeste 0 915.9 -1.4 58
2018-04-08 17:00:00 11.7 14 Sudoeste 30 Sudoeste 0 916.2 -1.5 54
2018-04-08 16:00:00 11.3 18 Sudoeste 32 Sudoeste 0 916.7 -1.5 55
2018-04-08 15:00:00 10.9 15 Oeste 30 Sudoeste 0 917.3 -1.1 52
2018-04-08 14:00:00 9.9 10 Sudoeste 23 Sudoeste 0 917.7 -0.4 60
2018-04-08 13:00:00 8.4 7 Oeste 18 Oeste 0 918.2 0.3 67
2018-04-08 12:00:00 8 6 Oeste 18 Oeste 0 918.4 0.6 70
2018-04-08 11:00:00 6.7 9 Oeste 24 Oeste 0 918.1 0.7 76
2018-04-08 10:00:00 5.5 9 Oeste 24 Oeste 0 917.9 0.8 84
2018-04-08 09:00:00 4.1 10 Oeste 19 Oeste 0 917.8 1.1 88
2018-04-08 08:00:00 4.1 6 Oeste 14 Sudoeste 0 917.4 0.6 89
2018-04-08 07:00:00 2.9 2 Oeste 6 Oeste 0 917.1 0.6 88
2018-04-08 06:00:00 2.8 0 Calma 3 Sudeste 0 916.7 -0.1 88
2018-04-08 05:00:00 2.9 3 Sudeste 8 Sudeste 0 916.8 -0.2 88
2018-04-08 04:00:00 3.5 0 Calma 5 Este 0 916.5 -0.7 88
2018-04-08 03:00:00 3.8 0 Calma 6 Sudoeste 0 916.8 -0.6 87
2018-04-08 02:00:00 4.5 0 Calma 4 Sudeste 0 917 -0.2 88
2018-04-08 01:00:00 4.6 2 Sudeste 4 Este 0 917.2 0.3 87
2018-04-08 00:00:00 4.2 0 Calma 5 Sudoeste 0 917.4 1.2 86
2018-04-07 23:00:00 4.7 2 Sudoeste 6 Sudeste 0 917.2 0.9 84
2018-04-07 22:00:00 5.8 3 Sudeste 13 Sudeste 0 916.9 0.4 81
2018-04-07 21:00:00 6.3 3 Este 10 Sudeste 0 916.2 -0.6 76
2018-04-07 20:00:00 6.8 4 Sudeste 10 Sudeste 0 916.3 -0.5 76
2018-04-07 19:00:00 7.1 4 Sudoeste 10 Sur 0.2 916.5 -0.5 75
2018-04-07 18:00:00 6.7 6 Sur 12 Sudoeste 0.2 916.8 -0.2 78
2018-04-07 17:00:00 6.5 4 Sudoeste 16 Sudoeste 0.6 916.8 0 80
2018-04-07 16:00:00 5.6 8 Sudoeste 18 Sudoeste 1.8 917 0.2 81
2018-04-07 15:00:00 5.7 7 Oeste 17 Oeste 1.4 917 0.1 82
2018-04-07 14:00:00 6 7 Oeste 17 Oeste 0 916.8 0.3 79
2018-04-07 13:00:00 6.9 4 Oeste 17 Oeste 0 916.8 0.5 76
2018-04-07 12:00:00 7.1 7 Oeste 19 Oeste 0 916.9 0.5 72
2018-04-07 11:00:00 7.1 8 Oeste 19 Oeste 0 916.5 0.6 71
2018-04-07 10:00:00 7 9 Oeste 19 Oeste 0 916.3 0.4 71
2018-04-07 09:00:00 6.8 5 Oeste 22 Oeste 0 916.4 0.7 72
2018-04-07 08:00:00 7.9 10 Oeste 23 Oeste 0 915.9 -0.3 69
2018-04-07 07:00:00 8.4 3 Sudoeste 11 Sudeste 0 915.9 -0.4 80
2018-04-07 06:00:00 8.6 7 Sudeste 13 Sudeste 0 915.7 -1.3 79
2018-04-07 05:00:00 8.9 3 Sudeste 8 Sudeste 0 916.2 -0.8 75
2018-04-07 04:00:00 9.1 0 Calma 8 Sudoeste 0 916.3 -0.3 72
2018-04-07 03:00:00 9.3 4 Sudoeste 21 Oeste 0 917 1.5 69
2018-04-07 02:00:00 9.6 11 Sudoeste 23 Oeste 0 917 1.5 68
2018-04-07 01:00:00 10.1 12 Oeste 33 Oeste 0 916.6 1.1 69
2018-04-07 00:00:00 13 8 Sur 20 Sur 0 915.5 0.3 63
2018-04-06 23:00:00 12.8 8 Sudeste 25 Sur 0 915.5 -0.1 64
2018-04-06 22:00:00 12.4 10 Este 23 Este 0 915.5 0.1 70
2018-04-06 21:00:00 14.2 7 Sudeste 26 Sudeste 0 915.2 0 57
2018-04-06 20:00:00 16.2 14 Sur 43 Sur 0 915.6 0.4 45
2018-04-06 19:00:00 17.6 19 Sur 49 Sur 0 915.4 -0.6 40
2018-04-06 18:00:00 19.1 15 Sur 41 Sur 0 915.2 -1.4 34
2018-04-06 17:00:00 20.7 22 Sur 47 Sur 0 915.2 -2.5 31
2018-04-06 16:00:00 21.7 15 Sur 35 Sur 0 916 -2.8 29
2018-04-06 15:00:00 22.4 12 Sur 39 Sudoeste 0 916.6 -3 28
2018-04-06 14:00:00 20.9 12 Sudoeste 34 Oeste 0 917.7 -2.2 25
2018-04-06 13:00:00 18.7 7 Sudeste 19 Sudeste 0 918.8 -1.4 35
2018-04-06 12:00:00 16.7 11 Este 24 Sudeste 0 919.6 -0.7 41
2018-04-06 11:00:00 13.7 13 Este 24 Sudeste 0 919.9 -0.3 48
2018-04-06 10:00:00 10.1 9 Este 20 Este 0 920.2 0.2 61
2018-04-06 09:00:00 6.4 4 Este 14 Sudeste 0 920.3 -0.2 73
2018-04-06 08:00:00 2.8 9 Sudeste 15 Este 0 920.2 -0.8 83
2018-04-06 07:00:00 2.3 6 Este 12 Sudeste 0 920 -1.4 85
2018-04-06 06:00:00 1.7 3 Sudeste 7 Sudeste 0 920.5 -1.4 85
2018-04-06 05:00:00 1.9 3 Sudeste 7 Este 0 921 -1.2 83
2018-04-06 04:00:00 2.5 3 Este 6 Este 0 921.4 -1.2 80
2018-04-06 03:00:00 3.9 0 Calma 8 Este 0 921.9 -0.9 76
2018-04-06 02:00:00 6 4 Este 10 Este 0 922.2 -0.7 69
2018-04-06 01:00:00 7 3 Este 7 Este 0 922.6 -0.3 70
2018-04-06 00:00:00 9.2 2 Norte 11 Este 0 922.8 0.2 58
2018-04-05 23:00:00 10.4 4 Noroeste 19 Sur 0 922.9 -0.4 55
2018-04-05 22:00:00 11.9 6 Sudeste 13 Sur 0 922.9 -0.8 53
2018-04-05 21:00:00 13.9 3 Este 9 Este 0 922.6 -1.9 52
2018-04-05 20:00:00 16 0 Calma 12 Sudeste 0 923.3 -1.8 34
2018-04-05 19:00:00 16.4 7 Este 14 Norte 0 923.7 -2.2 32
2018-04-05 18:00:00 16.4 6 Este 15 Nordeste 0 924.5 -2.1 33
2018-04-05 17:00:00 17.6 6 Sudoeste 15 Sudoeste 0 925.1 -2.3 31
2018-04-05 16:00:00 16.9 8 Sudoeste 21 Sudoeste 0 925.9 -2.1 32
2018-04-05 15:00:00 16.4 5 Oeste 23 Este 0 926.6 -1.9 37
2018-04-05 14:00:00 14 4 Sudeste 16 Sudeste 0 927.4 -1.3 48
2018-04-05 13:00:00 12.4 5 Nordeste 20 Este 0 928 -0.8 53
2018-04-05 12:00:00 11 9 Este 22 Este 0 928.5 -0.1 60
2018-04-05 11:00:00 9.6 9 Sudeste 19 Este 0 928.7 0.2 66
2018-04-05 10:00:00 6.3 8 Sudeste 15 Sudeste 0 928.8 0.8 73
2018-04-05 09:00:00 3.3 6 Este 12 Sudeste 0 928.6 0.8 84
2018-04-05 08:00:00 0.2 3 Este 8 Este 0 928.5 0.3 87
2018-04-05 07:00:00 0.5 3 Este 6 Este 0 928 -0.4 87
2018-04-05 06:00:00 1.8 2 Nordeste 6 Oeste 0 927.8 -0.6 87
2018-04-05 05:00:00 2.3 4 Oeste 8 Oeste 0 928.2 0 86
2018-04-05 04:00:00 3 2 Noroeste 8 Oeste 0 928.4 0.3 85
2018-04-05 03:00:00 3.7 4 Oeste 10 Oeste 0 928.4 0.7 82
2018-04-05 02:00:00 5.4 4 Oeste 17 Sudoeste 0 928.2 0.9 80
2018-04-05 01:00:00 6.4 8 Sudoeste 21 Sudoeste 0 928.1 2 77
2018-04-05 00:00:00 7.4 10 Sudoeste 24 Sudoeste 0 927.7 2.6 73
2018-04-04 23:00:00 7.8 9 Sudoeste 27 Oeste 0 927.3 3.2 73
2018-04-04 22:00:00 8.7 15 Sudoeste 34 Sudoeste 0 926.1 2.8 69
2018-04-04 21:00:00 10.3 19 Oeste 42 Oeste 0 925.1 2.2 60
2018-04-04 20:00:00 11.2 15 Oeste 46 Oeste 0 924.1 1.7 62
2018-04-04 19:00:00 11.4 19 Oeste 51 Sudoeste 0.4 923.3 1.2 66
2018-04-04 18:00:00 11.9 17 Oeste 58 Sudoeste 0.2 922.9 0.9 65
2018-04-04 17:00:00 12.2 25 Sudoeste 57 Oeste 0 922.4 0.7 59
2018-04-04 16:00:00 12.3 20 Oeste 71 Oeste 0.4 922.1 0.1 59
2018-04-04 15:00:00 12.4 19 Oeste 52 Oeste 0 922 0.8 54
2018-04-04 14:00:00 11.3 25 Sudoeste 46 Sudoeste 0 921.7 1.2 57
2018-04-04 13:00:00 9.5 24 Sudoeste 53 Oeste 0 922 2.2 65
2018-04-04 12:00:00 9.1 28 Sudoeste 57 Oeste 0 921.2 1.7 65
2018-04-04 11:00:00 8 26 Sudoeste 48 Sudoeste 0 920.5 1.9 69
2018-04-04 10:00:00 8.2 23 Sudoeste 46 Sudoeste 0 919.8 1.7 67
2018-04-04 09:00:00 7 18 Sudoeste 35 Sudoeste 0 919.5 2 71
2018-04-04 08:00:00 6.6 20 Sudoeste 36 Sudoeste 0 918.6 1.1 70
2018-04-04 07:00:00 6.6 13 Sudoeste 39 Sudoeste 0 918.1 0.9 71
2018-04-04 06:00:00 6.7 21 Sudoeste 39 Sudoeste 0 917.5 0.2 70
2018-04-04 05:00:00 6.5 18 Sudoeste 31 Sudoeste 0 917.5 0.3 71
2018-04-04 04:00:00 6.3 17 Sudoeste 33 Sudoeste 0 917.2 0.5 70
2018-04-04 03:00:00 6.1 18 Sudoeste 38 Sudoeste 0 917.3 0.4 72
2018-04-04 02:00:00 6.5 24 Sudoeste 48 Sudoeste 0 917.2 1.5 72
2018-04-04 01:00:00 6.5 18 Sudoeste 50 Sudoeste 0 916.7 1 76
2018-04-04 00:00:00 6.8 20 Sudoeste 49 Oeste 0.4 916.9 1.9 80
2018-04-03 23:00:00 7.1 20 Sudoeste 48 Oeste 0.4 915.7 1.4 77
2018-04-03 22:00:00 8.6 15 Sudoeste 29 Sudoeste 0 915.7 1.6 72
2018-04-03 21:00:00 8.5 8 Oeste 54 Sudoeste 0 915 0.2 73
2018-04-03 20:00:00 10.7 18 Sudoeste 46 Sur 0 914.3 0.1 69
2018-04-03 19:00:00 11.9 17 Sudoeste 58 Sudoeste 0.2 914.1 0 69
2018-04-03 18:00:00 11.2 32 Sudoeste 66 Sudoeste 0 914.8 -0.1 62
2018-04-03 17:00:00 12.8 29 Sudoeste 57 Sudoeste 0.2 914.2 -1.1 50
2018-04-03 16:00:00 14.4 26 Sudoeste 45 Sudoeste 0 914.1 -2 45
2018-04-03 15:00:00 12.3 16 Oeste 37 Oeste 0 914.9 -1.5 62
2018-04-03 14:00:00 12.2 8 Sudoeste 33 Sudoeste 0 915.3 -0.4 63
2018-04-03 13:00:00 11.6 12 Sudoeste 33 Sudoeste 0 916.1 0.5 68
2018-04-03 12:00:00 9.6 13 Oeste 52 Oeste 0.2 916.4 1.1 74
2018-04-03 11:00:00 11.4 20 Sudoeste 37 Sudoeste 0 915.7 0.9 62
2018-04-03 10:00:00 9.4 13 Sudoeste 21 Sudoeste 0 915.6 0.9 70
2018-04-03 09:00:00 8.4 14 Sudoeste 22 Sudoeste 0 915.3 0.4 70
2018-04-03 08:00:00 7.8 6 Sudoeste 15 Sudoeste 0 914.8 -0.5 77
2018-04-03 07:00:00 7.6 6 Sudoeste 20 Sudoeste 0 914.7 -0.8 79
2018-04-03 06:00:00 8 6 Sudoeste 29 Sudoeste 0 914.9 -0.9 78
2018-04-03 05:00:00 8.4 11 Sudoeste 25 Sudoeste 0 915.3 -0.7 77
2018-04-03 04:00:00 8.8 8 Sudoeste 18 Sudoeste 0 915.5 -0.7 81
2018-04-03 03:00:00 8.7 5 Sur 13 Sur 0 915.8 -0.3 83
2018-04-03 02:00:00 9.1 4 Sur 16 Sudoeste 0.2 916 -0.4 83
2018-04-03 01:00:00 9.5 8 Sudoeste 22 Sudoeste 0 916.2 0.6 82
2018-04-03 00:00:00 10.1 15 Sudoeste 28 Sudoeste 0.4 916.1 0.9 78
2018-04-02 23:00:00 10 7 Sudoeste 18 Sudoeste 1 916.4 1.8 83
2018-04-02 22:00:00 10.3 0 Calma 9 Oeste 0 915.6 1.6 81
2018-04-02 21:00:00 11.3 4 Oeste 23 Oeste 0.8 915.2 1.4 77
2018-04-02 20:00:00 13.4 16 Oeste 36 Oeste 0 914.6 1 63
2018-04-02 19:00:00 15.6 12 Sudoeste 37 Oeste 0 914 -0.1 42
2018-04-02 18:00:00 16.5 16 Oeste 47 Sudoeste 0 913.8 -0.9 38
2018-04-02 17:00:00 18.3 25 Sudoeste 58 Sudoeste 0 913.6 -1.6 29
2018-04-02 16:00:00 19.1 26 Sudoeste 52 Sudoeste 0 914.1 -1.9 26
2018-04-02 15:00:00 17.1 22 Sudoeste 45 Sudoeste 0 914.7 -1.6 30
2018-04-02 14:00:00 17 23 Sudoeste 37 Sudoeste 0 915.2 -1.4 31
2018-04-02 13:00:00 15.1 20 Sudoeste 35 Sudoeste 0 916 -0.3 37
2018-04-02 12:00:00 15.1 17 Sudoeste 28 Sudoeste 0 916.3 0.2 36
2018-04-02 11:00:00 12 6 Este 12 Este 0 916.6 0.5 52
2018-04-02 10:00:00 9.2 5 Este 11 Este 0 916.3 0.2 62
2018-04-02 09:00:00 7.5 4 Nordeste 10 Nordeste 0 916.1 -0.3 68
2018-04-02 08:00:00 7.1 2 Este 9 Nordeste 0 916.1 -0.9 69
2018-04-02 07:00:00 6.7 4 Nordeste 12 Este 0 916.1 -1.3 73
2018-04-02 06:00:00 6.6 4 Este 12 Sudeste 0 916.4 -1.6 73
2018-04-02 05:00:00 7.2 7 Este 11 Este 0 917 -1.5 69
2018-04-02 04:00:00 7 6 Sudeste 10 Nordeste 0 917.4 -1.6 69
2018-04-02 03:00:00 7.7 4 Este 8 Nordeste 0 918 -1.3 66
2018-04-02 02:00:00 7.4 0 Calma 11 Este 0 918.5 -1 70
2018-04-02 01:00:00 7.8 2 Este 6 Sudoeste 0 919 -0.6 64
2018-04-02 00:00:00 9.6 4 Nordeste 15 Sur 0 919.3 -0.2 57
2018-04-01 23:00:00 11 4 Sur 17 Sur 0 919.5 0.4 50
2018-04-01 22:00:00 12.6 12 Sur 23 Sur 0 919.6 0.2 44
2018-04-01 21:00:00 14.2 9 Sur 29 Sur 0 919.5 -0.3 42
2018-04-01 20:00:00 16.9 14 Sur 31 Sur 0 919.1 -1.8 34
2018-04-01 19:00:00 18.3 7 Sudeste 18 Sur 0 919.4 -2.3 33
2018-04-01 18:00:00 18.7 5 Sur 22 Este 0 919.8 -3.1 31
2018-04-01 17:00:00 17.8 6 Sudeste 19 Este 0 920.9 -2.8 31
2018-04-01 16:00:00 16.8 10 Este 24 Este 0 921.7 -2.8 36
2018-04-01 15:00:00 15.7 7 Este 17 Sudeste 0 922.9 -2 39
2018-04-01 14:00:00 13.8 4 Sudeste 15 Este 0 923.7 -1.6 42
2018-04-01 13:00:00 12.9 5 Este 17 Sudeste 0 924.5 -1.2 43
2018-04-01 12:00:00 10.7 8 Este 17 Este 0 924.9 -0.9 47
2018-04-01 11:00:00 8.6 8 Este 15 Sudeste 0 925.3 -0.3 59
2018-04-01 10:00:00 4.3 8 Este 15 Este 0 925.7 0.4 69
2018-04-01 09:00:00 2.2 6 Este 11 Este 0 925.8 0.4 77
2018-04-01 08:00:00 1.3 5 Este 10 Este 0 925.6 0 81
2018-04-01 07:00:00 2.1 0 Calma 4 Este 0 925.3 -1 79
2018-04-01 06:00:00 3.3 0 Calma 5 Noroeste 0 925.4 -1 76
2018-04-01 05:00:00 3.4 3 Noroeste 6 Oeste 0 925.6 -0.6 74
2018-04-01 04:00:00 3 3 Noroeste 7 Oeste 0 926.3 0.2 76
2018-04-01 03:00:00 2.6 2 Nordeste 6 Este 0 926.4 0.6 79
2018-04-01 02:00:00 2.2 0 Calma 5 Sudoeste 0 926.2 0.4 77
2018-04-01 01:00:00 2.4 3 Sudoeste 12 Sudoeste 0 926.1 0.8 74
2018-04-01 00:00:00 3.6 4 Oeste 11 Oeste 0 925.8 1.5 67
2018-03-31 23:00:00 5 3 Oeste 12 Oeste 0 925.8 1.9 59
2018-03-31 22:00:00 6.9 6 Sudoeste 21 Oeste 0 925.3 1.9 52
2018-03-31 21:00:00 8.4 10 Oeste 28 Oeste 0 924.3 1.3 43
2018-03-31 20:00:00 9.8 10 Oeste 34 Noroeste 0 923.9 0.7 37
2018-03-31 19:00:00 11 13 Oeste 48 Oeste 0 923.4 0.1 29
2018-03-31 18:00:00 11.7 15 Oeste 49 Oeste 0 923 0 32
2018-03-31 17:00:00 11.5 16 Oeste 49 Oeste 0 923.2 0.3 32
2018-03-31 16:00:00 10.9 14 Oeste 52 Oeste 0 923.3 0.7 36
2018-03-31 15:00:00 10.3 19 Oeste 45 Oeste 0 923 0.7 37
2018-03-31 14:00:00 10.2 13 Oeste 45 Noroeste 0 922.9 1.6 38
2018-03-31 13:00:00 8.6 14 Oeste 34 Oeste 0 922.6 2.6 45
2018-03-31 12:00:00 7.3 12 Oeste 37 Oeste 0 922.3 3.5 57
2018-03-31 11:00:00 5 14 Oeste 39 Oeste 0 921.3 3.9 67
2018-03-31 10:00:00 3.8 10 Oeste 31 Oeste 0 920 3.6 74
2018-03-31 09:00:00 2.5 14 Oeste 41 Oeste 0 918.8 3.8 77
2018-03-31 08:00:00 2.4 18 Oeste 38 Oeste 0 917.4 3.3 77
2018-03-31 07:00:00 2.5 17 Oeste 44 Oeste 0 916.4 3 76
2018-03-31 06:00:00 2.6 20 Oeste 46 Oeste 0 915 2.3 76
2018-03-31 05:00:00 2.7 21 Oeste 56 Oeste 0 914.1 1.7 75
2018-03-31 04:00:00 2.9 24 Oeste 59 Oeste 0 913.4 1 74
2018-03-31 03:00:00 3.1 24 Oeste 54 Oeste 0 912.7 0.4 74
2018-03-31 02:00:00 3 24 Oeste 50 Sudoeste 0 912.4 0.6 75
2018-03-31 01:00:00 2.6 16 Sudoeste 45 Oeste 0 912.4 1.2 79
2018-03-31 00:00:00 2.4 23 Sudoeste 45 Sudoeste 0 912.3 0.7 80
2018-03-30 23:00:00 2.1 19 Oeste 43 Sudoeste 0.8 911.8 0.3 85
2018-03-30 22:00:00 2.9 14 Sudoeste 38 Sudoeste 0.4 911.2 -0.1 84
2018-03-30 21:00:00 2.9 24 Sudoeste 51 Oeste 0.6 911.6 -0.2 81
2018-03-30 20:00:00 4.1 8 Oeste 58 Oeste 0.2 911.5 -1 76
2018-03-30 19:00:00 8.6 22 Sudoeste 50 Sudoeste 0 911.3 -2.2 34
2018-03-30 18:00:00 9.2 21 Sudoeste 48 Oeste 0 911.8 -2.7 32
2018-03-30 17:00:00 9.5 23 Sudoeste 43 Sudoeste 0 912.5 -2.5 33
2018-03-30 16:00:00 10.2 24 Sudoeste 46 Sudoeste 0 913.5 -1.9 31
2018-03-30 15:00:00 9 24 Sudoeste 50 Sudoeste 0 914.5 -1.5 35
2018-03-30 14:00:00 8.1 21 Oeste 42 Sudoeste 0 915 -1.2 43
2018-03-30 13:00:00 7.1 20 Sudoeste 40 Sudoeste 0 915.4 -0.4 47
2018-03-30 12:00:00 5.3 19 Sudoeste 39 Sudoeste 0 916 0.3 59
2018-03-30 11:00:00 3.7 18 Sudoeste 44 Oeste 0 916.2 0.9 62
2018-03-30 10:00:00 2.4 22 Oeste 47 Oeste 0 915.8 1 70
2018-03-30 09:00:00 2 14 Sudoeste 28 Sudoeste 0 915.7 1.5 72
2018-03-30 08:00:00 1.4 13 Sudoeste 33 Oeste 0 915.3 1.6 75
2018-03-30 07:00:00 2.1 16 Sudoeste 44 Oeste 0 914.8 1.8 74
2018-03-30 06:00:00 2.8 21 Oeste 47 Oeste 0 914.2 0.5 73
2018-03-30 05:00:00 2.9 20 Oeste 75 Sudoeste 0.8 913.7 0 80
2018-03-30 04:00:00 6 25 Sudoeste 55 Oeste 0 913 -1.1 71
2018-03-30 03:00:00 6 22 Sudoeste 53 Sudoeste 0 913.7 -0.9 72
2018-03-30 02:00:00 7.3 22 Sudoeste 53 Sudoeste 0 913.7 -1.6 53
2018-03-30 01:00:00 7.1 16 Sudoeste 31 Sudoeste 0 914.1 -1.3 51
2018-03-30 00:00:00 7.6 9 Sudoeste 25 Sudoeste 0 914.6 -1.1 52
2018-03-29 23:00:00 7.5 7 Sudoeste 17 Sudoeste 0 915.3 -0.7 48
2018-03-29 22:00:00 6.7 5 Sur 15 Sur 0 915.4 -0.8 46
2018-03-29 21:00:00 8.6 8 Sudoeste 35 Sudoeste 0 915.7 -1 39
2018-03-29 20:00:00 10.5 19 Sudoeste 42 Oeste 0 916 -1.4 33
2018-03-29 19:00:00 11.7 16 Sudoeste 37 Sudoeste 0 916.2 -2.1 29
2018-03-29 18:00:00 12.3 21 Sudoeste 40 Sudoeste 0 916.7 -2.6 27
2018-03-29 17:00:00 12.9 18 Sudoeste 39 Oeste 0 917.4 -2.8 28
2018-03-29 16:00:00 12.2 19 Sudoeste 41 Oeste 0 918.3 -2.6 31
2018-03-29 15:00:00 11.9 20 Sudoeste 41 Sudoeste 0 919.3 -2.1 33
2018-03-29 14:00:00 10.4 19 Sudoeste 39 Oeste 0 920.2 -1.1 37
2018-03-29 13:00:00 8.8 17 Oeste 39 Oeste 0 920.9 -0.3 43
2018-03-29 12:00:00 8.2 10 Oeste 37 Oeste 0 921.4 0.2 54
2018-03-29 11:00:00 7.3 12 Oeste 39 Oeste 0 921.3 0.1 59
2018-03-29 10:00:00 7.9 14 Oeste 25 Oeste 0 921.2 0.2 62
2018-03-29 09:00:00 6.3 9 Oeste 30 Oeste 0 921.2 -0.2 75
2018-03-29 08:00:00 6.4 12 Oeste 31 Oeste 0 921.2 -0.5 77
2018-03-29 07:00:00 6.6 10 Oeste 23 Oeste 0 921 -1.1 78
2018-03-29 06:00:00 7 11 Oeste 22 Oeste 0 921.4 -1.3 78
2018-03-29 05:00:00 7.1 6 Oeste 16 Oeste 0 921.7 -1.3 80
2018-03-29 04:00:00 7.2 5 Sudoeste 20 Oeste 0 922.1 -1.5 78
2018-03-29 03:00:00 8.1 8 Oeste 21 Oeste 0 922.7 -1.1 74
2018-03-29 02:00:00 8.9 12 Oeste 27 Oeste 0 923 -0.9 72
2018-03-29 01:00:00 9.2 6 Oeste 19 Oeste 0 923.6 -0.1 74
2018-03-29 00:00:00 9.3 5 Sudoeste 15 Oeste 0 923.8 0.4 79
2018-03-28 23:00:00 10.2 9 Noroeste 25 Oeste 0 923.9 0.7 69
2018-03-28 22:00:00 11.2 11 Oeste 26 Oeste 0 923.7 0.7 60
2018-03-28 21:00:00 11.8 12 Oeste 36 Oeste 0 923.4 0.2 55
2018-03-28 20:00:00 13.4 14 Oeste 35 Oeste 0 923.2 -0.8 50
2018-03-28 19:00:00 15.5 20 Sudoeste 40 Sudoeste 0 923 -1.7 41
2018-03-28 18:00:00 16.9 19 Oeste 46 Sudoeste 0 923.2 -2.3 31
2018-03-28 17:00:00 17.8 16 Oeste 44 Oeste 0 924 -2.3 30
2018-03-28 16:00:00 18.5 18 Oeste 45 Oeste 0 924.7 -2.3 27
2018-03-28 15:00:00 18.1 21 Oeste 44 Sudoeste 0 925.5 -2.4 23
2018-03-28 14:00:00 18.4 22 Oeste 47 Sudoeste 0 926.3 -2 21
2018-03-28 13:00:00 16.5 22 Oeste 46 Oeste 0 927 -1.7 22
2018-03-28 12:00:00 14.9 21 Sudoeste 38 Sudoeste 0 927.9 -1.4 28
2018-03-28 11:00:00 12.4 12 Sudoeste 24 Oeste 0 928.3 -1.2 43
2018-03-28 10:00:00 7.4 5 Este 8 Este 0 928.7 -1.1 68
2018-03-28 09:00:00 3.3 4 Este 8 Este 0 929.3 -0.4 78
2018-03-28 08:00:00 0.4 2 Este 6 Nordeste 0 929.5 -0.7 86
2018-03-28 07:00:00 1.3 2 Sudeste 10 Oeste 0 929.8 -1.1 86
2018-03-28 06:00:00 1.2 3 Noroeste 6 Oeste 0 929.7 -1.7 86
2018-03-28 05:00:00 1.6 0 Calma 4 Sudeste 0 930.2 -1.6 84
2018-03-28 04:00:00 2.6 0 Calma 5 Sudeste 0 930.9 -1.3 83
2018-03-28 03:00:00 4.2 0 Calma 6 Oeste 0 931.4 -1 81
2018-03-28 02:00:00 6.2 5 Oeste 12 Oeste 0 931.8 -1 74
2018-03-28 01:00:00 5.5 7 Oeste 10 Oeste 0 932.2 -0.4 77
2018-03-28 00:00:00 5.8 4 Sudoeste 9 Oeste 0 932.4 -0.1 74
2018-03-27 23:00:00 7.4 4 Oeste 10 Oeste 0 932.8 0.3 67
2018-03-27 22:00:00 9.8 2 Sur 10 Sudoeste 0 932.6 0.3 60
2018-03-27 21:00:00 13.5 5 Sudoeste 21 Oeste 0 932.5 -0.2 47
2018-03-27 20:00:00 16.3 11 Oeste 27 Noroeste 0 932.5 -0.6 36
2018-03-27 19:00:00 17.2 9 Oeste 28 Oeste 0 932.3 -1.6 35
2018-03-27 18:00:00 17.2 12 Oeste 32 Oeste 0 932.7 -1.7 37
2018-03-27 17:00:00 16.2 10 Noroeste 30 Oeste 0 933.1 -1.6 40
2018-03-27 16:00:00 16.1 10 Oeste 28 Oeste 0 933.9 -1.7 43
2018-03-27 15:00:00 15.5 12 Oeste 27 Oeste 0 934.4 -1.2 44
2018-03-27 14:00:00 13.4 8 Sudoeste 28 Sudoeste 0 934.7 -0.5 53
2018-03-27 13:00:00 11.1 13 Sudoeste 28 Sudoeste 0 935.6 0.9 61
2018-03-27 12:00:00 7.9 15 Sudoeste 26 Oeste 0 935.6 1.3 73
2018-03-27 11:00:00 6.6 11 Sudoeste 25 Oeste 0 935.2 1.4 80
2018-03-27 10:00:00 5.4 12 Sudoeste 24 Oeste 0 934.7 1.5 86
2018-03-27 09:00:00 3.9 9 Sudoeste 21 Sudoeste 0 934.3 1.5 85
2018-03-27 08:00:00 2 0 Calma 8 Oeste 0 933.8 0.9 85
2018-03-27 07:00:00 3.3 5 Oeste 13 Oeste 0 933.2 0.1 84
2018-03-27 06:00:00 3.2 5 Oeste 18 Oeste 0 932.8 -0.2 84
2018-03-27 05:00:00 2.8 7 Oeste 13 Oeste 0 932.9 -0.2 85
2018-03-27 04:00:00 2.6 5 Oeste 13 Oeste 0 933.1 0.1 83
2018-03-27 03:00:00 2.9 4 Sudoeste 5 Sudoeste 0 933 0.1 81
2018-03-27 02:00:00 3.4 0 Calma 6 Sudoeste 0 933.1 0.4 77
2018-03-27 01:00:00 4.7 0 Calma 8 Sudoeste 0 933 0.6 71
2018-03-27 00:00:00 6.5 5 Sudoeste 11 Oeste 0 932.9 0.9 66
2018-03-26 23:00:00 8 5 Oeste 12 Oeste 0 932.7 0.9 59
2018-03-26 22:00:00 8.5 6 Oeste 10 Oeste 0 932.4 0.9 56
2018-03-26 21:00:00 9.6 3 Sudoeste 16 Noroeste 0 932 0.3 53
2018-03-26 20:00:00 11 5 Noroeste 27 Noroeste 0 931.8 -0.1 41
2018-03-26 19:00:00 11.6 9 Oeste 23 Oeste 0 931.5 -0.4 39
2018-03-26 18:00:00 11 8 Noroeste 25 Oeste 0 931.7 -0.6 41
2018-03-26 17:00:00 11.7 11 Oeste 30 Oeste 0 931.9 -0.6 39
2018-03-26 16:00:00 11.5 10 Oeste 25 Oeste 0 931.9 -0.5 39
2018-03-26 15:00:00 9.7 9 Oeste 26 Sudoeste 0 932.3 0.1 51
2018-03-26 14:00:00 8.7 9 Oeste 27 Oeste 0 932.5 0.4 55
2018-03-26 13:00:00 8.4 7 Noroeste 24 Noroeste 0 932.4 1.3 54
2018-03-26 12:00:00 7.3 8 Noroeste 23 Noroeste 0 932.2 1.5 60
2018-03-26 11:00:00 6 5 Oeste 14 Oeste 0 932.1 2.3 68
2018-03-26 10:00:00 4.4 8 Sudoeste 16 Oeste 0 931.1 2 69
2018-03-26 09:00:00 1.4 3 Oeste 8 Sudoeste 0 930.7 2.2 84
2018-03-26 08:00:00 0.2 2 Sudoeste 6 Sudoeste 0 929.8 1.5 83
2018-03-26 07:00:00 1.7 3 Sudoeste 13 Oeste 0 929.1 1 81
2018-03-26 06:00:00 2.6 7 Oeste 14 Oeste 0 928.5 0.5 82
2018-03-26 05:00:00 3 3 Oeste 10 Oeste 0 928.3 0.7 85
2018-03-26 04:00:00 3.3 4 Sudoeste 15 Noroeste 0.2 928.1 1.4 85
2018-03-26 03:00:00 3.6 8 Noroeste 22 Oeste 0 928 1.7 81
2018-03-26 02:00:00 4.2 4 Oeste 11 Oeste 0 927.6 2 84
2018-03-26 01:00:00 4.4 3 Noroeste 9 Noroeste 0 926.7 2 83
2018-03-26 00:00:00 4.6 0 Calma 6 Oeste 0 926.3 2.6 80
2018-03-25 23:00:00 4.8 0 Calma 8 Noroeste 0 925.6 3.1 81
2018-03-25 22:00:00 5 3 Oeste 14 Noroeste 0 924.7 2.7 79
2018-03-25 21:00:00 5.3 5 Noroeste 24 Norte 0 923.7 2.1 72
2018-03-25 20:00:00 6.7 4 Oeste 24 Noroeste 0 922.5 1.5 68
2018-03-25 19:00:00 6.8 11 Oeste 31 Noroeste 0 922 1.5 64
2018-03-25 18:00:00 7 10 Oeste 36 Noroeste 0 921.6 1.1 63
2018-03-25 17:00:00 8.2 15 Oeste 40 Oeste 0 921 0.8 56
2018-03-25 16:00:00 9.2 10 Oeste 28 Noroeste 0 920.5 0.7 45
2018-03-25 15:00:00 8.6 9 Oeste 29 Noroeste 0 920.5 1.2 50
2018-03-25 14:00:00 7.5 11 Noroeste 28 Noroeste 0 920.2 1.4 50
2018-03-25 13:00:00 7 10 Oeste 29 Noroeste 0 919.8 1.2 56
2018-03-25 12:00:00 6.9 12 Oeste 34 Oeste 0 919.3 1.3 58
2018-03-25 11:00:00 3.5 12 Oeste 28 Oeste 0 918.8 1.5 73
2018-03-25 10:00:00 2.5 9 Oeste 17 Oeste 0 918.6 1.7 79
2018-03-25 09:00:00 1.2 9 Oeste 17 Oeste 0 918 1.5 82
2018-03-25 08:00:00 0.7 6 Oeste 19 Sudoeste 0 917.3 1 81
2018-03-25 07:00:00 1 7 Sudoeste 17 Sudoeste 0 916.9 0.9 78
2018-03-25 06:00:00 1.6 7 Sudoeste 24 Oeste 0 916.5 0.4 76
2018-03-25 05:00:00 2.5 11 Oeste 27 Oeste 0 916.3 0 75
2018-03-25 03:00:00 3.2 11 Oeste 27 Oeste 0 916.1 0.3 70
2018-03-25 01:00:00 3.4 10 Oeste 31 Oeste 0 916.3 0.9 72
2018-03-25 00:00:00 3.5 11 Oeste 38 Oeste 0 916.2 1.3 70
2018-03-24 23:00:00 3.8 10 Oeste 39 Oeste 0 915.8 1.5 63
2018-03-24 22:00:00 4.4 15 Oeste 44 Oeste 0 915.4 2 63
2018-03-24 21:00:00 5.1 15 Oeste 43 Oeste 0 914.9 2.3 65
2018-03-24 20:00:00 6.8 18 Oeste 43 Oeste 0 914.3 2.3 59
2018-03-24 19:00:00 7.7 14 Oeste 47 Norte 0 913.4 1.5 57
2018-03-24 18:00:00 8.3 18 Noroeste 50 Noroeste 0 912.6 1.3 55
2018-03-24 17:00:00 7.6 10 Oeste 46 Noroeste 0.2 912 1.1 68
2018-03-24 16:00:00 9.2 20 Noroeste 73 Noroeste 0 911.9 1 54
2018-03-24 15:00:00 9.3 21 Oeste 67 Noroeste 0 911.3 0.1 55
2018-03-24 14:00:00 8 20 Oeste 58 Oeste 0 910.9 -0.5 58
2018-03-24 13:00:00 7 26 Oeste 56 Oeste 0 910.9 -1 61
2018-03-24 12:00:00 5.6 21 Oeste 52 Oeste 0 911.2 -0.3 64
2018-03-24 11:00:00 4.1 19 Oeste 44 Oeste 0 911.4 0 71
2018-03-24 10:00:00 2.9 21 Oeste 49 Oeste 0 911.9 0.9 75
2018-03-24 09:00:00 2.1 19 Oeste 38 Oeste 0 911.5 0.8 75
2018-03-24 08:00:00 1 15 Oeste 37 Oeste 0 911.4 1 79
2018-03-24 07:00:00 0.9 15 Oeste 38 Oeste 0 911 0.6 80
2018-03-24 06:00:00 0.5 14 Oeste 29 Oeste 0 910.7 0.1 83
2018-03-24 05:00:00 0.3 11 Oeste 28 Oeste 0 910.4 -1.5 82
2018-03-24 04:00:00 0.8 10 Oeste 27 Oeste 0 910.4 -0.6 83
2018-03-24 03:00:00 1.5 13 Oeste 43 Oeste 0 910.6 -0.5 79
2018-03-24 02:00:00 1.9 17 Oeste 42 Oeste 0 911.9 1.9 80
2018-03-24 01:00:00 2 13 Oeste 31 Oeste 0.2 911 -0.5 86
2018-03-24 00:00:00 1.8 9 Oeste 50 Noroeste 3.6 911.1 -1.3 82
2018-03-23 23:00:00 7.6 21 Sudoeste 47 Sudoeste 0.2 910 -3.6 81
2018-03-23 22:00:00 7.8 23 Sudoeste 44 Sudoeste 0.8 911.5 -3.3 80
2018-03-23 21:00:00 8.7 19 Sudoeste 39 Sudoeste 0 912.4 -3.6 78
2018-03-23 20:00:00 9.2 24 Sudoeste 41 Sudoeste 0 913.6 -3.6 76
2018-03-23 19:00:00 9.4 18 Sudoeste 40 Sudoeste 0 914.8 -3.8 79
2018-03-23 18:00:00 10.7 19 Sudoeste 41 Oeste 0.2 916 -4 70
2018-03-23 17:00:00 10.8 15 Sudoeste 33 Sudoeste 0 917.2 -4.3 72
2018-03-23 16:00:00 9.7 14 Sudoeste 33 Sudoeste 0 918.6 -4 76
2018-03-23 15:00:00 9.4 18 Sudoeste 47 Oeste 0 920 -3.6 72
2018-03-23 14:00:00 9.5 19 Sudoeste 36 Oeste 0 921.5 -2.9 69
2018-03-23 13:00:00 9.4 19 Sudoeste 45 Oeste 0 922.6 -2.5 65
2018-03-23 12:00:00 8.7 18 Sudoeste 37 Sudoeste 0 923.6 -1.9 65
2018-03-23 11:00:00 7.4 17 Sudoeste 32 Oeste 0 924.4 -1.5 66
2018-03-23 10:00:00 7.1 15 Sudoeste 27 Sudoeste 0 925.1 -0.7 67
2018-03-23 09:00:00 4.3 10 Sudoeste 21 Sudoeste 0 925.5 -0.4 78
2018-03-23 08:00:00 3.8 9 Sudoeste 23 Oeste 0 925.9 -0.4 76
2018-03-23 07:00:00 3.7 9 Oeste 30 Oeste 0 925.8 -0.8 69
2018-03-23 06:00:00 3.7 10 Oeste 22 Sudoeste 0 925.9 -1.5 65
2018-03-23 05:00:00 2 4 Oeste 14 Oeste 0 926.3 -1.5 71
2018-03-23 04:00:00 -0.4 0 Calma 6 Noroeste 0 926.6 -1.9 76
2018-03-23 03:00:00 1 4 Oeste 20 Oeste 0 927.4 -1.5 67
2018-03-23 02:00:00 -0.5 8 Oeste 18 Oeste 0 927.8 -1.8 79
2018-03-23 01:00:00 -2 2 Este 4 Este 0 928.5 -1.4 82
2018-03-23 00:00:00 -1.8 0 Calma 5 Oeste 0 928.9 -0.8 81